createdAt,value
2023-03-07T00:00:35.376Z,90.00
2023-03-07T00:03:01.800Z,90.00
2023-03-07T00:05:28.219Z,90.00
2023-03-07T00:07:54.669Z,90.00
2023-03-07T00:10:21.177Z,90.00
2023-03-07T00:12:47.631Z,90.00
2023-03-07T00:15:14.046Z,90.00
2023-03-07T00:17:40.456Z,90.00
2023-03-07T00:20:07.028Z,90.00
2023-03-07T00:22:33.477Z,89.90
2023-03-07T00:24:59.918Z,89.90
2023-03-07T00:27:26.385Z,90.00
2023-03-07T00:29:52.836Z,90.00
2023-03-07T00:32:19.278Z,90.00
2023-03-07T00:34:45.766Z,90.00
2023-03-07T00:37:12.140Z,90.00
2023-03-07T00:39:38.513Z,90.00
2023-03-07T00:42:04.935Z,90.00
2023-03-07T00:44:31.371Z,90.00
2023-03-07T00:46:57.768Z,90.20
2023-03-07T00:49:24.141Z,90.20
2023-03-07T00:51:50.611Z,90.20
2023-03-07T00:54:17.056Z,90.10
2023-03-07T00:56:43.444Z,90.10
2023-03-07T00:59:09.808Z,90.10
2023-03-07T01:01:36.196Z,90.40
2023-03-07T01:04:02.618Z,90.10
2023-03-07T01:06:29.069Z,90.10
2023-03-07T01:08:55.475Z,90.10
2023-03-07T01:11:21.859Z,90.10
2023-03-07T01:13:48.237Z,90.00
2023-03-07T01:16:14.726Z,90.00
2023-03-07T01:18:41.223Z,90.00
2023-03-07T01:21:07.631Z,90.00
2023-03-07T01:23:34.020Z,89.90
2023-03-07T01:26:00.447Z,89.90
2023-03-07T01:28:26.875Z,89.80
2023-03-07T01:30:53.337Z,89.70
2023-03-07T01:33:19.721Z,89.50
2023-03-07T01:35:46.231Z,89.50
2023-03-07T01:38:12.691Z,89.30
2023-03-07T01:40:39.123Z,89.40
2023-03-07T01:43:05.507Z,89.50
2023-03-07T01:45:32.115Z,89.50
2023-03-07T01:47:58.577Z,89.50
2023-03-07T01:50:25.031Z,89.60
2023-03-07T01:52:51.478Z,89.60
2023-03-07T01:55:17.880Z,89.60
2023-03-07T01:57:44.285Z,89.60
2023-03-07T02:00:10.698Z,89.70
2023-03-07T02:02:37.172Z,89.70
2023-03-07T02:05:03.553Z,89.80
2023-03-07T02:07:29.932Z,90.00
2023-03-07T02:09:56.313Z,90.10
2023-03-07T02:12:23.271Z,90.20
2023-03-07T02:14:49.798Z,90.40
2023-03-07T02:17:16.227Z,90.60
2023-03-07T02:19:42.642Z,90.60
2023-03-07T02:22:09.035Z,90.60
2023-03-07T02:24:35.481Z,90.60
2023-03-07T02:27:01.930Z,90.60
2023-03-07T02:29:28.323Z,90.60
2023-03-07T02:31:54.720Z,90.60
2023-03-07T02:34:21.099Z,90.60
2023-03-07T02:36:47.535Z,90.60
2023-03-07T02:39:13.913Z,90.60
2023-03-07T02:41:40.323Z,90.50
2023-03-07T02:44:06.754Z,90.50
2023-03-07T02:46:33.256Z,90.40
2023-03-07T02:48:59.680Z,90.30
2023-03-07T02:51:26.081Z,90.30
2023-03-07T02:53:52.514Z,90.30
2023-03-07T02:56:18.907Z,90.20
2023-03-07T02:58:45.269Z,90.20
2023-03-07T03:01:11.779Z,90.30
2023-03-07T03:03:38.285Z,90.20
2023-03-07T03:06:04.715Z,90.30
2023-03-07T03:08:31.209Z,90.20
2023-03-07T03:10:57.647Z,90.20
2023-03-07T03:13:24.038Z,90.10
2023-03-07T03:15:50.451Z,90.10
2023-03-07T03:18:16.880Z,90.10
2023-03-07T03:20:43.251Z,90.10
2023-03-07T03:23:09.667Z,90.10
2023-03-07T03:25:36.052Z,90.10
2023-03-07T03:28:02.457Z,90.00
2023-03-07T03:30:28.917Z,90.00
2023-03-07T03:32:55.309Z,90.00
2023-03-07T03:35:21.696Z,89.90
2023-03-07T03:37:48.090Z,89.90
2023-03-07T03:40:14.807Z,89.90
2023-03-07T03:42:41.306Z,89.80
2023-03-07T03:45:07.736Z,89.60
2023-03-07T03:47:34.157Z,89.60
2023-03-07T03:50:00.562Z,89.70
2023-03-07T03:52:27.002Z,89.60
2023-03-07T03:54:53.406Z,89.50
2023-03-07T03:57:19.776Z,89.50
2023-03-07T03:59:46.184Z,89.50
2023-03-07T04:02:12.653Z,89.50
2023-03-07T04:04:39.071Z,89.40
2023-03-07T04:07:05.473Z,89.40
2023-03-07T04:09:31.849Z,89.40
2023-03-07T04:11:58.322Z,89.40
2023-03-07T04:14:24.732Z,89.30
2023-03-07T04:16:51.188Z,89.30
2023-03-07T04:19:17.595Z,89.30
2023-03-07T04:21:44.023Z,89.20
2023-03-07T04:24:10.469Z,89.20
2023-03-07T04:26:36.963Z,89.30
2023-03-07T04:29:03.421Z,89.20
2023-03-07T04:31:29.872Z,88.70
2023-03-07T04:33:56.279Z,88.30
2023-03-07T04:36:22.660Z,87.10
2023-03-07T04:38:49.116Z,86.90
2023-03-07T04:41:15.524Z,86.60
2023-03-07T04:43:41.910Z,86.70
2023-03-07T04:46:08.450Z,86.50
2023-03-07T04:48:34.858Z,86.60
2023-03-07T04:51:01.231Z,86.50
2023-03-07T04:53:27.683Z,86.50
2023-03-07T04:55:54.074Z,86.90
2023-03-07T04:58:20.550Z,87.10
2023-03-07T05:00:47.020Z,87.50
2023-03-07T05:03:13.433Z,87.40
2023-03-07T05:05:40.033Z,87.20
2023-03-07T05:08:06.471Z,87.00
2023-03-07T05:10:32.883Z,86.90
2023-03-07T05:12:59.262Z,87.00
2023-03-07T05:15:25.711Z,86.90
2023-03-07T05:17:52.145Z,87.00
2023-03-07T05:20:18.574Z,87.00
2023-03-07T05:22:44.956Z,87.00
2023-03-07T05:25:11.406Z,87.10
2023-03-07T05:27:37.825Z,87.20
2023-03-07T05:30:04.225Z,87.30
2023-03-07T05:32:30.640Z,87.30
2023-03-07T05:34:57.099Z,87.50
2023-03-07T05:37:23.544Z,87.60
2023-03-07T05:39:49.960Z,87.70
2023-03-07T05:42:16.370Z,87.70
2023-03-07T05:44:42.757Z,87.70
2023-03-07T05:47:09.153Z,87.70
2023-03-07T05:49:35.616Z,87.60
2023-03-07T05:52:02.069Z,87.60
2023-03-07T05:54:28.497Z,87.60
2023-03-07T05:56:54.966Z,87.60
2023-03-07T05:59:21.345Z,87.60
2023-03-07T06:01:47.722Z,87.50
2023-03-07T06:04:14.142Z,87.40
2023-03-07T06:06:40.615Z,87.40
2023-03-07T06:09:07.049Z,87.30
2023-03-07T06:11:33.483Z,87.30
2023-03-07T06:13:59.934Z,87.20
2023-03-07T06:16:26.507Z,87.20
2023-03-07T06:18:52.962Z,86.90
2023-03-07T06:21:19.417Z,86.50
2023-03-07T06:23:45.867Z,86.30
2023-03-07T06:26:12.337Z,86.20
2023-03-07T06:28:39.039Z,86.30
2023-03-07T06:31:05.536Z,86.20
2023-03-07T06:33:32.016Z,86.10
2023-03-07T06:35:58.560Z,85.90
2023-03-07T06:38:24.980Z,85.70
2023-03-07T06:40:51.389Z,85.50
2023-03-07T06:43:17.748Z,85.10
2023-03-07T06:45:44.199Z,84.00
2023-03-07T06:48:10.578Z,84.30
2023-03-07T06:50:36.953Z,84.40
2023-03-07T06:53:03.376Z,84.70
2023-03-07T06:55:29.829Z,85.50
2023-03-07T06:57:56.285Z,85.20
2023-03-07T07:00:22.711Z,85.50
2023-03-07T07:02:49.195Z,85.80
2023-03-07T07:05:15.630Z,85.90
2023-03-07T07:07:42.024Z,86.10
2023-03-07T07:10:08.430Z,86.10
2023-03-07T07:12:34.915Z,86.40
2023-03-07T07:15:01.349Z,86.70
2023-03-07T07:17:27.801Z,86.90
2023-03-07T07:19:54.199Z,87.10
2023-03-07T07:22:20.633Z,87.30
2023-03-07T07:24:47.126Z,87.40
2023-03-07T07:27:13.531Z,87.60
2023-03-07T07:29:39.967Z,87.80
2023-03-07T07:32:06.549Z,88.00
2023-03-07T07:34:33.077Z,88.20
2023-03-07T07:36:59.512Z,88.40
2023-03-07T07:39:25.989Z,88.50
2023-03-07T07:41:52.453Z,88.60
2023-03-07T07:44:18.862Z,88.70
2023-03-07T07:46:45.243Z,88.80
2023-03-07T07:49:11.684Z,88.90
2023-03-07T07:51:38.078Z,89.00
2023-03-07T07:54:04.466Z,89.00
2023-03-07T07:56:30.918Z,89.00
2023-03-07T07:58:57.364Z,88.90
2023-03-07T08:01:23.818Z,89.00
2023-03-07T08:03:50.244Z,89.00
2023-03-07T08:06:17.502Z,89.00
2023-03-07T08:08:44.868Z,89.10
2023-03-07T08:11:11.297Z,88.90
2023-03-07T08:13:37.946Z,88.90
2023-03-07T08:16:04.378Z,89.00
2023-03-07T08:18:30.858Z,88.90
2023-03-07T08:20:57.296Z,89.00
2023-03-07T08:23:23.740Z,89.10
2023-03-07T08:25:50.180Z,89.00
2023-03-07T08:28:16.595Z,89.00
2023-03-07T08:30:42.994Z,88.70
2023-03-07T08:33:09.392Z,88.60
2023-03-07T08:35:35.924Z,89.20
2023-03-07T08:38:02.394Z,88.50
2023-03-07T08:40:28.801Z,88.50
2023-03-07T08:42:55.266Z,88.30
2023-03-07T08:45:22.889Z,88.20
2023-03-07T08:47:49.434Z,88.10
2023-03-07T08:50:15.821Z,88.10
2023-03-07T08:52:42.201Z,88.00
2023-03-07T08:55:08.625Z,88.00
2023-03-07T08:57:35.063Z,88.00
2023-03-07T09:00:01.472Z,87.90
2023-03-07T09:02:27.866Z,87.80
2023-03-07T09:04:54.354Z,87.70
2023-03-07T09:07:20.773Z,87.70
2023-03-07T09:09:47.196Z,87.60
2023-03-07T09:12:14.875Z,87.50
2023-03-07T09:14:41.406Z,87.60
2023-03-07T09:17:07.813Z,87.40
2023-03-07T09:19:34.287Z,87.50
2023-03-07T09:22:00.723Z,87.50
2023-03-07T09:24:27.111Z,87.50
2023-03-07T09:26:53.510Z,87.30
2023-03-07T09:29:19.979Z,87.20
2023-03-07T09:31:46.563Z,87.20
2023-03-07T09:34:13.104Z,87.30
2023-03-07T09:36:39.590Z,87.20
2023-03-07T09:39:06.025Z,87.10
2023-03-07T09:41:32.459Z,87.10
2023-03-07T09:43:58.843Z,87.00
2023-03-07T09:46:25.204Z,87.10
2023-03-07T09:48:51.639Z,87.10
2023-03-07T09:51:18.094Z,87.00
2023-03-07T09:53:44.566Z,86.80
2023-03-07T09:56:10.994Z,86.80
2023-03-07T09:58:37.592Z,86.70
2023-03-07T10:01:03.990Z,86.60
2023-03-07T10:03:30.445Z,86.50
2023-03-07T10:05:56.880Z,86.40
2023-03-07T10:08:23.275Z,86.50
2023-03-07T10:10:49.663Z,86.40
2023-03-07T10:13:16.064Z,86.30
2023-03-07T10:15:42.672Z,86.20
2023-03-07T10:18:09.143Z,86.30
2023-03-07T10:20:35.627Z,86.10
2023-03-07T10:23:02.203Z,86.10
2023-03-07T10:25:28.612Z,86.30
2023-03-07T10:27:55.069Z,86.30
2023-03-07T10:30:21.478Z,86.20
2023-03-07T10:32:47.939Z,86.00
2023-03-07T10:35:14.410Z,85.80
2023-03-07T10:37:40.817Z,85.70
2023-03-07T10:40:07.270Z,85.50
2023-03-07T10:42:34.123Z,85.30
2023-03-07T10:45:00.596Z,85.20
2023-03-07T10:47:27.071Z,84.90
2023-03-07T10:49:53.511Z,84.80
2023-03-07T10:52:20.245Z,84.60
2023-03-07T10:54:46.625Z,84.70
2023-03-07T10:57:13.064Z,84.40
2023-03-07T10:59:39.514Z,84.20
2023-03-07T11:02:05.957Z,84.20
2023-03-07T11:04:32.406Z,84.00
2023-03-07T11:06:58.861Z,84.10
2023-03-07T11:09:25.259Z,84.10
2023-03-07T11:11:51.724Z,83.80
2023-03-07T11:14:18.989Z,83.70
2023-03-07T11:16:45.568Z,83.80
2023-03-07T11:19:11.991Z,83.80
2023-03-07T11:21:38.501Z,83.70
2023-03-07T11:24:05.002Z,83.60
2023-03-07T11:26:31.478Z,83.70
2023-03-07T11:28:57.906Z,83.70
2023-03-07T11:31:24.343Z,83.50
2023-03-07T11:33:58.971Z,83.20
2023-03-07T11:36:26.079Z,82.90
2023-03-07T11:38:52.642Z,82.80
2023-03-07T11:41:19.048Z,82.60
2023-03-07T11:43:45.436Z,82.40
2023-03-07T11:46:11.941Z,82.10
2023-03-07T11:48:38.442Z,82.10
2023-03-07T11:51:04.931Z,82.20
2023-03-07T11:53:31.327Z,82.10
2023-03-07T11:55:57.760Z,81.50
2023-03-07T11:58:24.200Z,80.90
2023-03-07T12:00:50.653Z,81.30
2023-03-07T12:03:17.056Z,81.10
2023-03-07T12:05:43.544Z,80.70
2023-03-07T12:08:09.942Z,80.70
2023-03-07T12:10:36.312Z,80.50
2023-03-07T12:13:02.707Z,79.90
2023-03-07T12:15:29.162Z,79.60
2023-03-07T12:17:55.563Z,79.50
2023-03-07T12:20:21.995Z,78.60
2023-03-07T12:22:48.423Z,78.70
2023-03-07T12:25:14.816Z,79.00
2023-03-07T12:27:41.209Z,78.60
2023-03-07T12:30:07.883Z,78.50
2023-03-07T12:32:34.490Z,78.40
2023-03-07T12:35:01.009Z,78.40
2023-03-07T12:37:27.434Z,78.60
2023-03-07T12:39:53.952Z,78.50
2023-03-07T12:42:20.358Z,77.30
2023-03-07T12:44:46.787Z,76.80
2023-03-07T12:47:13.212Z,75.70
2023-03-07T12:49:49.109Z,76.10
2023-03-07T12:52:16.312Z,76.20
2023-03-07T12:54:42.763Z,76.20
2023-03-07T12:57:09.223Z,76.10
2023-03-07T12:59:35.616Z,75.90
2023-03-07T13:02:02.004Z,75.50
2023-03-07T13:04:28.460Z,76.00
2023-03-07T13:06:54.919Z,77.00
2023-03-07T13:09:21.305Z,78.20
2023-03-07T13:11:47.793Z,79.10
2023-03-07T13:14:14.198Z,80.00
2023-03-07T13:16:40.730Z,80.90
2023-03-07T13:19:07.341Z,82.10
2023-03-07T13:21:33.967Z,83.10
2023-03-07T13:24:00.415Z,83.60
2023-03-07T13:26:26.855Z,84.00
2023-03-07T13:28:53.290Z,84.30
2023-03-07T13:31:19.687Z,83.90
2023-03-07T13:33:46.141Z,83.50
2023-03-07T13:36:12.550Z,83.20
2023-03-07T13:38:39.005Z,82.80
2023-03-07T13:41:05.456Z,82.30
2023-03-07T13:43:31.840Z,82.10
2023-03-07T13:45:58.305Z,81.80
2023-03-07T13:48:24.787Z,81.60
2023-03-07T13:50:51.190Z,81.30
2023-03-07T13:53:17.603Z,81.30
2023-03-07T13:55:44.041Z,81.40
2023-03-07T13:58:10.624Z,81.40
2023-03-07T14:00:37.056Z,81.30
2023-03-07T14:03:03.491Z,81.30
2023-03-07T14:05:29.883Z,81.30
2023-03-07T14:07:56.274Z,81.10
2023-03-07T14:10:23.545Z,81.00
2023-03-07T14:12:50.190Z,80.90
2023-03-07T14:15:16.603Z,80.90
2023-03-07T14:17:43.123Z,80.90
2023-03-07T14:20:09.632Z,80.70
2023-03-07T14:22:36.091Z,80.50
2023-03-07T14:25:02.495Z,80.40
2023-03-07T14:27:28.904Z,80.20
2023-03-07T14:29:55.313Z,80.30
2023-03-07T14:32:21.773Z,80.10
2023-03-07T14:34:48.172Z,80.10
2023-03-07T14:37:14.611Z,80.00
2023-03-07T14:39:41.042Z,80.10
2023-03-07T14:42:07.683Z,80.00
2023-03-07T14:44:34.052Z,79.80
2023-03-07T14:47:00.481Z,79.70
2023-03-07T14:49:26.940Z,79.60
2023-03-07T14:51:53.346Z,79.70
2023-03-07T14:54:19.784Z,79.40
2023-03-07T14:56:46.245Z,79.00
2023-03-07T14:59:22.570Z,77.90
2023-03-07T15:01:54.304Z,79.40
2023-03-07T15:04:20.709Z,80.00
2023-03-07T15:06:47.096Z,81.00
2023-03-07T15:09:13.543Z,81.70
2023-03-07T15:11:39.999Z,82.40
2023-03-07T15:14:06.394Z,83.00
2023-03-07T15:16:32.871Z,83.40
2023-03-07T15:18:59.344Z,83.50
2023-03-07T15:21:25.800Z,83.50
2023-03-07T15:23:52.283Z,83.40
2023-03-07T15:26:18.755Z,83.40
2023-03-07T15:28:45.226Z,83.40
2023-03-07T15:31:11.748Z,83.50
2023-03-07T15:33:38.217Z,83.50
2023-03-07T15:36:04.625Z,83.50
2023-03-07T15:38:31.084Z,83.30
2023-03-07T15:40:57.472Z,83.10
2023-03-07T15:43:23.922Z,82.90
2023-03-07T15:45:50.461Z,82.80
2023-03-07T15:48:16.958Z,82.80
2023-03-07T15:50:43.425Z,82.60
2023-03-07T15:53:09.955Z,82.60
2023-03-07T15:55:36.429Z,82.40
2023-03-07T15:58:02.889Z,82.50
2023-03-07T16:00:29.332Z,82.60
2023-03-07T16:02:55.821Z,82.80
2023-03-07T16:05:22.272Z,83.00
2023-03-07T16:07:48.729Z,83.00
2023-03-07T16:10:15.117Z,82.90
2023-03-07T16:12:41.572Z,83.00
2023-03-07T16:15:07.986Z,83.20
2023-03-07T16:17:34.432Z,83.20
2023-03-07T16:20:00.876Z,83.20
2023-03-07T16:22:27.283Z,83.10
2023-03-07T16:24:53.661Z,83.10
2023-03-07T16:27:20.108Z,82.80
2023-03-07T16:29:46.552Z,82.90
2023-03-07T16:32:12.969Z,83.00
2023-03-07T16:34:39.573Z,82.90
2023-03-07T16:37:06.022Z,82.90
2023-03-07T16:39:32.480Z,82.50
2023-03-07T16:41:58.908Z,82.70
2023-03-07T16:44:25.347Z,82.80
2023-03-07T16:46:51.730Z,82.90
2023-03-07T16:49:18.201Z,83.00
2023-03-07T16:51:47.286Z,82.90
2023-03-07T16:54:15.490Z,82.80
2023-03-07T16:56:42.062Z,82.80
2023-03-07T16:59:08.771Z,82.80
2023-03-07T17:01:35.273Z,82.60
2023-03-07T17:04:01.720Z,82.70
2023-03-07T17:06:38.863Z,82.70
2023-03-07T17:09:05.749Z,82.80
2023-03-07T17:11:32.211Z,82.80
2023-03-07T17:13:58.586Z,82.80
2023-03-07T17:16:24.978Z,83.00
2023-03-07T17:18:51.396Z,83.10
2023-03-07T17:21:17.810Z,83.20
2023-03-07T17:23:44.248Z,83.20
2023-03-07T17:26:10.659Z,83.20
2023-03-07T17:28:37.073Z,83.10
2023-03-07T17:31:03.560Z,83.20
2023-03-07T17:33:30.014Z,83.20
2023-03-07T17:35:56.453Z,83.30
2023-03-07T17:38:22.971Z,83.30
2023-03-07T17:40:49.422Z,83.40
2023-03-07T17:43:15.831Z,83.40
2023-03-07T17:45:42.259Z,83.60
2023-03-07T17:48:08.800Z,84.00
2023-03-07T17:50:35.190Z,84.50
2023-03-07T17:53:01.663Z,85.00
2023-03-07T17:55:28.093Z,85.60
2023-03-07T17:57:54.529Z,86.30
2023-03-07T18:00:21.256Z,86.70
2023-03-07T18:02:47.826Z,86.80
2023-03-07T18:05:14.485Z,86.90
2023-03-07T18:07:40.888Z,86.90
2023-03-07T18:10:08.798Z,87.00
2023-03-07T18:12:35.425Z,87.10
2023-03-07T18:15:01.882Z,87.20
2023-03-07T18:17:35.647Z,88.00
2023-03-07T18:20:08.275Z,87.70
2023-03-07T18:22:34.727Z,87.80
2023-03-07T18:25:01.172Z,88.00
2023-03-07T18:27:27.587Z,88.10
2023-03-07T18:29:53.985Z,88.00
2023-03-07T18:32:20.417Z,88.00
2023-03-07T18:34:46.815Z,88.00
2023-03-07T18:37:13.454Z,88.00
2023-03-07T18:39:39.865Z,87.90
2023-03-07T18:42:06.325Z,87.80
2023-03-07T18:44:32.806Z,87.60
2023-03-07T18:46:59.327Z,87.50
2023-03-07T18:49:25.815Z,87.50
2023-03-07T18:51:52.201Z,88.10
2023-03-07T18:54:18.635Z,87.30
2023-03-07T18:56:45.086Z,87.10
2023-03-07T18:59:11.544Z,87.10
2023-03-07T19:01:37.970Z,87.00
2023-03-07T19:04:04.416Z,86.90
2023-03-07T19:06:30.828Z,86.80
2023-03-07T19:08:57.237Z,86.80
2023-03-07T19:11:23.657Z,86.70
2023-03-07T19:13:50.126Z,86.80
2023-03-07T19:16:16.590Z,86.80
2023-03-07T19:18:42.980Z,87.10
2023-03-07T19:21:09.656Z,86.70
2023-03-07T19:23:36.094Z,86.70
2023-03-07T19:26:02.544Z,86.70
2023-03-07T19:28:28.956Z,86.70
2023-03-07T19:30:55.331Z,86.70
2023-03-07T19:33:21.766Z,86.70
2023-03-07T19:35:48.187Z,86.80
2023-03-07T19:38:14.600Z,86.70
2023-03-07T19:40:41.030Z,86.70
2023-03-07T19:43:07.444Z,86.70
2023-03-07T19:45:34.140Z,86.70
2023-03-07T19:48:00.644Z,86.70
2023-03-07T19:50:27.080Z,86.70
2023-03-07T19:52:53.524Z,86.60
2023-03-07T19:55:19.962Z,86.70
2023-03-07T19:57:46.415Z,86.70
2023-03-07T20:00:12.856Z,86.80
2023-03-07T20:02:39.410Z,86.90
2023-03-07T20:05:06.069Z,86.80
2023-03-07T20:07:32.437Z,86.80
2023-03-07T20:09:58.866Z,86.80
2023-03-07T20:12:25.339Z,86.80
2023-03-07T20:14:51.770Z,86.80
2023-03-07T20:17:18.709Z,86.70
2023-03-07T20:19:45.158Z,86.80
2023-03-07T20:22:11.615Z,86.80
2023-03-07T20:24:38.025Z,86.70
2023-03-07T20:27:04.433Z,86.70
2023-03-07T20:29:30.874Z,86.70
2023-03-07T20:31:57.278Z,86.60
2023-03-07T20:34:25.322Z,86.60
2023-03-07T20:36:51.890Z,86.60
2023-03-07T20:39:19.326Z,86.60
2023-03-07T20:41:45.753Z,86.60
2023-03-07T20:44:12.430Z,86.70
2023-03-07T20:46:38.945Z,86.70
2023-03-07T20:49:05.429Z,86.60
2023-03-07T20:51:31.872Z,86.60
2023-03-07T20:53:58.259Z,86.60
2023-03-07T20:56:24.717Z,86.50
2023-03-07T20:58:51.124Z,86.40
2023-03-07T21:01:17.554Z,86.30
2023-03-07T21:03:44.063Z,86.30
2023-03-07T21:06:10.765Z,86.40
2023-03-07T21:08:37.259Z,86.40
2023-03-07T21:11:03.725Z,86.30
2023-03-07T21:13:30.153Z,86.10
2023-03-07T21:15:56.612Z,86.10
2023-03-07T21:18:23.092Z,86.10
2023-03-07T21:20:49.472Z,86.10
2023-03-07T21:23:15.924Z,86.10
2023-03-07T21:25:42.393Z,86.00
2023-03-07T21:28:08.899Z,86.20
2023-03-07T21:30:35.318Z,86.30
2023-03-07T21:33:01.705Z,87.00
2023-03-07T21:35:28.152Z,86.30
2023-03-07T21:37:54.574Z,86.30
2023-03-07T21:40:20.982Z,86.40
2023-03-07T21:42:47.359Z,86.40
2023-03-07T21:45:13.734Z,86.40
2023-03-07T21:47:40.192Z,86.40
2023-03-07T21:50:06.650Z,86.30
2023-03-07T21:52:33.116Z,86.40
2023-03-07T21:54:59.550Z,86.20
2023-03-07T21:57:26.029Z,86.30
2023-03-07T21:59:52.504Z,86.30
2023-03-07T22:02:19.002Z,86.30
2023-03-07T22:04:45.449Z,86.30
2023-03-07T22:07:11.908Z,86.30
2023-03-07T22:09:38.309Z,86.30
2023-03-07T22:12:04.713Z,86.40
2023-03-07T22:14:31.133Z,86.50
2023-03-07T22:16:57.644Z,86.70
2023-03-07T22:19:24.186Z,86.70
2023-03-07T22:21:50.649Z,86.60
2023-03-07T22:24:17.083Z,86.50
2023-03-07T22:26:43.517Z,86.40
2023-03-07T22:29:09.912Z,86.30
2023-03-07T22:31:36.369Z,86.30
2023-03-07T22:34:02.860Z,86.30
2023-03-07T22:36:29.266Z,86.30
2023-03-07T22:38:55.764Z,86.20
2023-03-07T22:41:22.436Z,86.10
2023-03-07T22:43:48.839Z,86.10
2023-03-07T22:46:15.351Z,86.20
2023-03-07T22:48:41.817Z,86.30
2023-03-07T22:51:08.273Z,86.90
2023-03-07T22:53:34.651Z,86.30
2023-03-07T22:56:01.108Z,86.40
2023-03-07T22:58:27.562Z,86.40
2023-03-07T23:00:53.962Z,86.30
2023-03-07T23:03:20.396Z,86.30
2023-03-07T23:05:46.884Z,86.30
2023-03-07T23:08:13.292Z,86.20
2023-03-07T23:10:39.691Z,86.20
2023-03-07T23:13:06.110Z,86.10
2023-03-07T23:15:32.669Z,86.10
2023-03-07T23:17:59.152Z,86.20
2023-03-07T23:20:25.526Z,86.20
2023-03-07T23:22:51.961Z,86.30
2023-03-07T23:25:18.393Z,86.20
2023-03-07T23:27:44.824Z,86.10
2023-03-07T23:30:11.268Z,86.10
2023-03-07T23:32:38.077Z,86.10
2023-03-07T23:35:04.475Z,86.20
2023-03-07T23:37:30.869Z,86.30
2023-03-07T23:39:57.252Z,86.30
2023-03-07T23:42:23.710Z,86.30
2023-03-07T23:44:50.145Z,86.20
2023-03-07T23:47:16.574Z,86.10
2023-03-07T23:49:43.070Z,86.00
2023-03-07T23:52:09.493Z,85.90
2023-03-07T23:54:35.865Z,85.90
2023-03-07T23:57:02.254Z,86.10
2023-03-07T23:59:28.731Z,86.10
